createdAt,value
2023-12-15T00:00:31.755Z,5.87
2023-12-15T00:02:59.470Z,6.73
2023-12-15T00:05:27.417Z,7.13
2023-12-15T00:07:55.159Z,5.97
2023-12-15T00:10:22.954Z,6.40
2023-12-15T00:12:50.602Z,4.73
2023-12-15T00:15:18.494Z,5.53
2023-12-15T00:17:47.626Z,8.17
2023-12-15T00:20:15.479Z,7.40
2023-12-15T00:22:43.164Z,7.03
2023-12-15T00:25:11.089Z,7.60
2023-12-15T00:27:39.004Z,7.27
2023-12-15T00:30:08.284Z,8.03
2023-12-15T00:32:36.263Z,6.17
2023-12-15T00:35:05.996Z,7.27
2023-12-15T00:37:33.754Z,6.43
2023-12-15T00:40:01.571Z,7.33
2023-12-15T00:42:29.551Z,7.03
2023-12-15T00:44:57.897Z,7.03
2023-12-15T00:47:25.631Z,8.53
2023-12-15T00:49:53.704Z,5.37
2023-12-15T00:52:22.886Z,6.73
2023-12-15T00:54:50.631Z,5.73
2023-12-15T00:57:18.768Z,6.20
2023-12-15T00:59:46.469Z,5.77
2023-12-15T01:02:14.407Z,5.53
2023-12-15T01:04:42.153Z,5.87
2023-12-15T01:07:10.264Z,4.13
2023-12-15T01:09:39.454Z,4.93
2023-12-15T01:12:07.462Z,4.03
2023-12-15T01:14:35.227Z,4.33
2023-12-15T01:17:03.695Z,3.53
2023-12-15T01:19:31.435Z,3.97
2023-12-15T01:21:59.356Z,3.33
2023-12-15T01:24:27.048Z,2.70
2023-12-15T01:26:56.316Z,3.83
2023-12-15T01:29:24.000Z,2.53
2023-12-15T01:31:51.994Z,3.40
2023-12-15T01:34:19.713Z,2.90
2023-12-15T01:36:47.789Z,2.53
2023-12-15T01:39:15.451Z,2.00
2023-12-15T01:41:43.218Z,2.07
2023-12-15T01:44:12.415Z,1.47
2023-12-15T01:46:40.183Z,2.17
2023-12-15T01:49:08.484Z,2.00
2023-12-15T01:51:36.290Z,2.73
2023-12-15T01:54:04.437Z,3.67
2023-12-15T01:56:32.132Z,2.33
2023-12-15T01:59:00.084Z,2.33
2023-12-15T02:01:29.365Z,1.37
2023-12-15T02:03:57.376Z,4.27
2023-12-15T02:06:25.077Z,2.57
2023-12-15T02:08:54.756Z,2.73
2023-12-15T02:11:22.442Z,4.80
2023-12-15T02:13:50.155Z,2.87
2023-12-15T02:16:17.883Z,4.10
2023-12-15T02:18:47.260Z,3.50
2023-12-15T02:21:15.103Z,2.43
2023-12-15T02:23:44.362Z,3.70
2023-12-15T02:26:12.105Z,4.30
2023-12-15T02:28:39.929Z,3.73
2023-12-15T02:31:07.844Z,4.60
2023-12-15T02:33:35.899Z,4.97
2023-12-15T02:36:03.774Z,4.73
2023-12-15T02:38:31.503Z,4.23
2023-12-15T02:41:00.710Z,5.43
2023-12-15T02:43:28.502Z,4.13
2023-12-15T02:45:56.284Z,3.50
2023-12-15T02:48:23.990Z,3.70
2023-12-15T02:50:51.908Z,4.93
2023-12-15T02:53:19.609Z,4.57
2023-12-15T02:55:47.423Z,2.97
2023-12-15T02:58:16.467Z,3.40
2023-12-15T03:00:44.335Z,3.67
2023-12-15T03:03:12.158Z,3.73
2023-12-15T03:05:40.291Z,3.77
2023-12-15T03:08:08.243Z,3.70
2023-12-15T03:10:36.283Z,2.53
2023-12-15T03:13:04.020Z,3.40
2023-12-15T03:15:33.148Z,4.57
2023-12-15T03:18:00.850Z,5.00
2023-12-15T03:20:28.972Z,3.83
2023-12-15T03:23:00.423Z,4.57
2023-12-15T03:25:28.321Z,6.37
2023-12-15T03:27:55.969Z,6.40
2023-12-15T03:30:23.784Z,5.37
2023-12-15T03:32:52.845Z,6.00
2023-12-15T03:35:20.792Z,6.00
2023-12-15T03:37:48.484Z,6.30
2023-12-15T03:40:16.536Z,6.83
2023-12-15T03:42:44.216Z,8.00
2023-12-15T03:45:11.996Z,8.13
2023-12-15T03:47:39.931Z,5.60
2023-12-15T03:50:09.629Z,5.67
2023-12-15T03:52:37.651Z,7.97
2023-12-15T03:55:06.287Z,6.10
2023-12-15T03:57:34.072Z,8.83
2023-12-15T04:00:01.873Z,8.90
2023-12-15T04:02:32.132Z,5.80
2023-12-15T04:05:00.109Z,7.90
2023-12-15T04:07:29.393Z,6.17
2023-12-15T04:09:57.123Z,6.13
2023-12-15T04:12:25.026Z,7.83
2023-12-15T04:14:52.700Z,6.77
2023-12-15T04:17:20.521Z,7.63
2023-12-15T04:19:48.228Z,7.03
2023-12-15T04:22:16.110Z,7.97
2023-12-15T04:24:45.113Z,6.83
2023-12-15T04:27:13.230Z,6.50
2023-12-15T04:29:40.927Z,5.50
2023-12-15T04:32:09.729Z,7.70
2023-12-15T04:34:38.732Z,9.93
2023-12-15T04:37:06.799Z,7.23
2023-12-15T04:39:34.702Z,7.83
2023-12-15T04:42:03.982Z,6.37
2023-12-15T04:44:31.862Z,6.37
2023-12-15T04:46:59.672Z,6.83
2023-12-15T04:49:27.468Z,7.77
2023-12-15T04:51:55.116Z,12.07
2023-12-15T04:54:22.939Z,7.60
2023-12-15T04:56:50.612Z,13.20
2023-12-15T04:59:19.802Z,6.00
2023-12-15T05:01:47.500Z,6.10
2023-12-15T05:04:15.202Z,6.70
2023-12-15T05:06:42.880Z,6.33
2023-12-15T05:09:11.123Z,8.43
2023-12-15T05:11:38.858Z,7.10
2023-12-15T05:14:06.893Z,7.03
2023-12-15T05:16:35.962Z,7.33
2023-12-15T05:19:03.748Z,6.37
2023-12-15T05:21:31.458Z,6.67
2023-12-15T05:24:00.182Z,5.73
2023-12-15T05:26:27.975Z,6.03
2023-12-15T05:28:59.021Z,8.43
2023-12-15T05:31:27.408Z,7.37
2023-12-15T05:33:56.656Z,6.30
2023-12-15T05:36:24.381Z,7.60
2023-12-15T05:38:54.256Z,5.60
2023-12-15T05:41:23.542Z,7.63
2023-12-15T05:43:51.458Z,4.70
2023-12-15T05:46:20.919Z,5.47
2023-12-15T05:48:49.012Z,4.43
2023-12-15T05:51:18.327Z,6.13
2023-12-15T05:53:53.133Z,5.73
2023-12-15T05:56:25.720Z,6.80
2023-12-15T05:58:53.559Z,6.27
2023-12-15T06:01:21.434Z,5.03
2023-12-15T06:03:49.290Z,6.77
2023-12-15T06:06:18.597Z,6.53
2023-12-15T06:08:46.536Z,5.13
2023-12-15T06:11:14.400Z,5.87
2023-12-15T06:13:43.220Z,4.47
2023-12-15T06:16:18.836Z,5.40
2023-12-15T06:18:46.797Z,4.77
2023-12-15T06:21:23.215Z,3.20
2023-12-15T06:23:51.339Z,3.97
2023-12-15T06:26:20.894Z,4.47
2023-12-15T06:28:49.422Z,3.80
2023-12-15T06:31:17.592Z,4.57
2023-12-15T06:33:46.037Z,6.17
2023-12-15T06:36:14.744Z,5.40
2023-12-15T06:38:45.818Z,4.53
2023-12-15T06:41:14.019Z,5.10
2023-12-15T06:43:42.258Z,8.27
2023-12-15T06:46:10.647Z,5.07
2023-12-15T06:48:38.738Z,5.67
2023-12-15T06:51:07.814Z,5.33
2023-12-15T06:53:35.982Z,5.13
2023-12-15T06:56:05.780Z,4.80
2023-12-15T06:58:33.490Z,5.97
2023-12-15T07:01:01.277Z,4.57
2023-12-15T07:03:29.903Z,4.67
2023-12-15T07:05:58.206Z,6.43
2023-12-15T07:08:26.005Z,5.67
2023-12-15T07:10:53.828Z,5.00
2023-12-15T07:13:22.831Z,6.87
2023-12-15T07:15:50.744Z,5.00
2023-12-15T07:18:18.527Z,4.47
2023-12-15T07:20:46.586Z,4.97
2023-12-15T07:23:14.273Z,5.00
2023-12-15T07:25:42.237Z,3.57
2023-12-15T07:28:09.899Z,4.00
2023-12-15T07:30:39.211Z,5.23
2023-12-15T07:33:07.044Z,5.33
2023-12-15T07:35:34.991Z,4.70
2023-12-15T07:38:02.914Z,5.27
2023-12-15T07:40:30.975Z,4.47
2023-12-15T07:42:59.097Z,4.30
2023-12-15T07:45:27.027Z,4.67
2023-12-15T07:47:57.776Z,5.20
2023-12-15T07:50:26.634Z,5.17
2023-12-15T07:52:55.004Z,5.67
2023-12-15T07:55:22.705Z,5.37
2023-12-15T07:57:50.484Z,5.37
2023-12-15T08:00:18.688Z,5.50
2023-12-15T08:02:46.682Z,5.33
2023-12-15T08:05:16.052Z,6.10
2023-12-15T08:07:44.342Z,5.60
2023-12-15T08:10:12.029Z,5.40
2023-12-15T08:12:39.928Z,6.17
2023-12-15T08:15:09.029Z,5.03
2023-12-15T08:17:37.175Z,3.97
2023-12-15T08:20:06.115Z,5.47
2023-12-15T08:22:35.422Z,5.40
2023-12-15T08:25:03.143Z,4.70
2023-12-15T08:27:31.091Z,5.23
2023-12-15T08:30:00.396Z,4.90
2023-12-15T08:32:28.288Z,3.77
2023-12-15T08:34:56.315Z,4.27
2023-12-15T08:37:24.023Z,4.40
2023-12-15T08:39:53.154Z,5.40
2023-12-15T08:42:20.856Z,5.77
2023-12-15T08:44:48.581Z,5.30
2023-12-15T08:47:16.262Z,4.00
2023-12-15T08:49:44.111Z,5.03
2023-12-15T08:52:11.907Z,4.13
2023-12-15T08:54:39.712Z,3.90
2023-12-15T08:57:08.886Z,4.03
2023-12-15T08:59:36.831Z,5.13
2023-12-15T09:02:04.657Z,4.67
2023-12-15T09:04:32.618Z,5.37
2023-12-15T09:07:00.570Z,4.43
2023-12-15T09:09:28.420Z,5.33
2023-12-15T09:11:56.179Z,3.70
2023-12-15T09:14:25.513Z,5.03
2023-12-15T09:16:53.446Z,4.40
2023-12-15T09:19:21.801Z,4.87
2023-12-15T09:21:49.620Z,4.20
2023-12-15T09:24:19.939Z,3.90
2023-12-15T09:26:47.963Z,4.03
2023-12-15T09:29:17.123Z,5.20
2023-12-15T09:31:46.135Z,4.03
2023-12-15T09:34:15.055Z,7.10
2023-12-15T09:36:42.881Z,3.13
2023-12-15T09:39:10.923Z,3.50
2023-12-15T09:41:38.686Z,3.30
2023-12-15T09:44:06.521Z,3.80
2023-12-15T09:46:36.559Z,4.23
2023-12-15T09:49:05.838Z,4.23
2023-12-15T09:51:37.504Z,3.27
2023-12-15T09:54:05.221Z,3.60
2023-12-15T09:56:33.316Z,2.87
2023-12-15T09:59:01.916Z,2.80
2023-12-15T10:01:29.729Z,2.60
2023-12-15T10:03:57.566Z,3.20
2023-12-15T10:06:27.356Z,2.37
2023-12-15T10:09:01.892Z,3.77
2023-12-15T10:11:34.662Z,2.57
2023-12-15T10:14:06.287Z,3.03
2023-12-15T10:16:35.183Z,3.07
2023-12-15T10:19:04.838Z,4.73
2023-12-15T10:21:34.417Z,2.60
2023-12-15T10:24:19.674Z,1.87
2023-12-15T10:26:47.738Z,3.60
2023-12-15T10:29:15.762Z,3.20
2023-12-15T10:31:43.780Z,3.10
2023-12-15T10:34:11.556Z,4.20
2023-12-15T10:36:42.061Z,3.20
2023-12-15T10:39:11.901Z,3.57
2023-12-15T10:41:41.211Z,3.40
2023-12-15T10:44:09.461Z,3.10
2023-12-15T10:46:39.331Z,2.10
2023-12-15T10:49:08.398Z,3.40
2023-12-15T10:51:38.830Z,3.23
2023-12-15T10:54:09.816Z,2.93
2023-12-15T10:56:39.871Z,3.20
2023-12-15T10:59:08.634Z,3.03
2023-12-15T11:01:38.153Z,3.40
2023-12-15T11:04:18.368Z,3.43
2023-12-15T11:06:46.099Z,3.43
2023-12-15T11:09:36.230Z,3.50
2023-12-15T11:12:29.411Z,3.70
2023-12-15T11:15:00.857Z,3.90
2023-12-15T11:17:30.146Z,4.40
2023-12-15T11:20:07.400Z,4.50
2023-12-15T11:22:50.840Z,4.30
2023-12-15T11:25:21.688Z,3.47
2023-12-15T11:28:03.557Z,4.93
2023-12-15T11:30:33.152Z,4.53
2023-12-15T11:33:01.280Z,4.23
2023-12-15T11:35:30.741Z,5.40
2023-12-15T11:38:00.086Z,3.63
2023-12-15T11:40:30.967Z,3.53
2023-12-15T11:42:59.062Z,4.27
2023-12-15T11:45:28.462Z,4.03
2023-12-15T11:47:56.437Z,3.43
2023-12-15T11:50:24.783Z,4.53
2023-12-15T11:52:52.925Z,3.87
2023-12-15T11:55:21.106Z,3.93
2023-12-15T11:57:50.160Z,4.33
2023-12-15T12:00:20.839Z,3.60
2023-12-15T12:02:49.245Z,3.67
2023-12-15T12:05:17.085Z,3.20
2023-12-15T12:07:44.837Z,5.93
2023-12-15T12:10:12.801Z,4.07
2023-12-15T12:12:40.757Z,3.00
2023-12-15T12:15:12.294Z,5.13
2023-12-15T12:17:40.667Z,4.97
2023-12-15T12:20:12.259Z,6.13
2023-12-15T12:22:41.280Z,4.60
2023-12-15T12:25:12.034Z,4.00
2023-12-15T12:27:40.060Z,4.37
2023-12-15T12:30:14.117Z,3.70
2023-12-15T12:32:43.295Z,3.83
2023-12-15T12:35:10.952Z,3.77
2023-12-15T12:37:38.915Z,3.83
2023-12-15T12:40:07.890Z,5.40
2023-12-15T12:42:36.145Z,3.57
2023-12-15T12:45:04.649Z,3.70
2023-12-15T12:47:38.572Z,3.10
2023-12-15T12:50:08.071Z,2.73
2023-12-15T12:52:37.751Z,4.13
2023-12-15T12:55:07.796Z,3.77
2023-12-15T12:57:35.942Z,2.40
2023-12-15T13:00:07.858Z,2.77
2023-12-15T13:02:39.023Z,3.17
2023-12-15T13:05:09.395Z,4.13
2023-12-15T13:07:37.896Z,4.30
2023-12-15T13:10:06.692Z,2.87
2023-12-15T13:12:35.383Z,3.97
2023-12-15T13:15:03.976Z,3.33
2023-12-15T13:17:31.762Z,2.57
2023-12-15T13:20:00.961Z,2.77
2023-12-15T13:22:41.463Z,3.20
2023-12-15T13:25:15.720Z,6.67
2023-12-15T13:27:43.622Z,3.33
2023-12-15T13:30:12.395Z,3.80
2023-12-15T13:32:40.875Z,2.57
2023-12-15T13:35:10.681Z,2.60
2023-12-15T13:37:38.448Z,3.20
2023-12-15T13:40:07.836Z,3.97
2023-12-15T13:42:37.153Z,3.13
2023-12-15T13:45:06.407Z,3.57
2023-12-15T13:47:34.653Z,8.13
2023-12-15T13:50:02.634Z,3.37
2023-12-15T13:52:32.136Z,2.63
2023-12-15T13:55:00.399Z,3.23
2023-12-15T13:57:28.281Z,3.57
2023-12-15T13:59:56.519Z,3.33
2023-12-15T14:02:24.555Z,2.67
2023-12-15T14:04:52.776Z,3.93
2023-12-15T14:07:20.932Z,3.93
2023-12-15T14:09:50.196Z,3.20
2023-12-15T14:12:18.378Z,3.10
2023-12-15T14:14:47.720Z,2.57
2023-12-15T14:17:17.152Z,3.70
2023-12-15T14:19:44.960Z,2.87
2023-12-15T14:22:14.317Z,3.90
2023-12-15T14:24:42.969Z,3.00
2023-12-15T14:27:12.630Z,3.60
2023-12-15T14:29:40.581Z,2.43
2023-12-15T14:32:09.037Z,2.70
2023-12-15T14:34:36.750Z,2.57
2023-12-15T14:37:05.149Z,3.80
2023-12-15T14:39:34.030Z,2.47
2023-12-15T14:42:01.938Z,3.40
2023-12-15T14:44:31.006Z,2.67
2023-12-15T14:47:00.841Z,3.07
2023-12-15T14:49:28.818Z,3.53
2023-12-15T14:51:56.915Z,5.03
2023-12-15T14:54:24.622Z,4.03
2023-12-15T14:56:52.343Z,3.23
2023-12-15T14:59:20.413Z,3.53
2023-12-15T15:01:49.502Z,2.83
2023-12-15T15:04:17.178Z,3.43
2023-12-15T15:06:46.567Z,5.10
2023-12-15T15:09:14.788Z,3.47
2023-12-15T15:11:42.723Z,4.93
2023-12-15T15:14:10.423Z,4.77
2023-12-15T15:16:38.272Z,3.30
2023-12-15T15:19:07.654Z,3.47
2023-12-15T15:21:35.718Z,3.40
2023-12-15T15:24:03.387Z,3.50
2023-12-15T15:26:31.329Z,3.67
2023-12-15T15:29:00.073Z,7.40
2023-12-15T15:31:27.913Z,4.23
2023-12-15T15:33:55.886Z,3.93
2023-12-15T15:36:27.177Z,3.60
2023-12-15T15:38:55.265Z,3.80
2023-12-15T15:41:23.969Z,2.77
2023-12-15T15:44:02.021Z,2.80
2023-12-15T15:46:34.332Z,3.37
2023-12-15T15:49:02.344Z,3.40
2023-12-15T15:51:32.105Z,4.63
2023-12-15T15:53:59.902Z,3.40
2023-12-15T15:56:28.243Z,3.60
2023-12-15T15:58:57.778Z,3.20
2023-12-15T16:01:32.791Z,3.40
2023-12-15T16:04:08.383Z,3.13
2023-12-15T16:06:37.548Z,3.37
2023-12-15T16:09:05.346Z,4.30
2023-12-15T16:11:33.148Z,3.10
2023-12-15T16:14:05.478Z,3.47
2023-12-15T16:16:38.396Z,2.97
2023-12-15T16:19:06.190Z,3.10
2023-12-15T16:21:37.453Z,2.83
2023-12-15T16:24:07.776Z,3.80
2023-12-15T16:26:35.728Z,4.67
2023-12-15T16:29:04.107Z,3.33
2023-12-15T16:31:32.110Z,2.63
2023-12-15T16:33:59.893Z,2.77
2023-12-15T16:36:28.006Z,3.00
2023-12-15T16:38:57.114Z,2.67
2023-12-15T16:41:25.912Z,2.80
2023-12-15T16:43:53.759Z,3.30
2023-12-15T16:46:21.830Z,3.07
2023-12-15T16:48:54.416Z,6.53
2023-12-15T16:51:23.287Z,2.50
2023-12-15T16:53:52.352Z,3.30
2023-12-15T16:56:21.783Z,4.37
2023-12-15T16:58:50.171Z,3.73
2023-12-15T17:01:18.013Z,3.53
2023-12-15T17:03:46.849Z,3.23
2023-12-15T17:06:15.470Z,3.40
2023-12-15T17:08:44.080Z,3.97
2023-12-15T17:11:12.625Z,4.23
2023-12-15T17:13:41.767Z,3.67
2023-12-15T17:16:15.071Z,6.53
2023-12-15T17:18:47.811Z,3.23
2023-12-15T17:21:16.105Z,3.87
2023-12-15T17:23:43.923Z,3.67
2023-12-15T17:26:17.278Z,3.00
2023-12-15T17:28:46.616Z,3.13
2023-12-15T17:31:14.803Z,2.27
2023-12-15T17:33:42.879Z,3.70
2023-12-15T17:36:11.755Z,3.10
2023-12-15T17:38:40.043Z,3.17
2023-12-15T17:41:07.719Z,3.30
2023-12-15T17:43:35.897Z,3.30
2023-12-15T17:46:05.434Z,3.77
2023-12-15T17:48:33.447Z,3.97
2023-12-15T17:51:01.617Z,7.20
2023-12-15T17:53:29.951Z,3.07
2023-12-15T17:55:57.916Z,4.13
2023-12-15T17:58:25.970Z,4.43
2023-12-15T18:00:53.788Z,3.93
2023-12-15T18:03:23.000Z,3.83
2023-12-15T18:05:52.164Z,3.57
2023-12-15T18:08:20.091Z,3.47
2023-12-15T18:10:48.362Z,3.10
2023-12-15T18:13:16.901Z,4.70
2023-12-15T18:15:44.713Z,4.27
2023-12-15T18:18:12.735Z,4.20
2023-12-15T18:20:42.892Z,3.40
2023-12-15T18:23:14.664Z,3.77
2023-12-15T18:25:42.628Z,5.60
2023-12-15T18:28:16.906Z,4.00
2023-12-15T18:30:50.735Z,4.00
2023-12-15T18:33:18.863Z,3.23
2023-12-15T18:35:48.774Z,4.80
2023-12-15T18:38:16.509Z,4.20
2023-12-15T18:40:44.208Z,3.97
2023-12-15T18:43:14.385Z,4.77
2023-12-15T18:45:44.927Z,3.93
2023-12-15T18:48:14.794Z,4.80
2023-12-15T18:50:43.361Z,5.30
2023-12-15T18:53:12.717Z,3.47
2023-12-15T18:55:40.839Z,7.00
2023-12-15T18:58:08.767Z,5.97
2023-12-15T19:00:36.986Z,4.13
2023-12-15T19:03:05.101Z,4.00
2023-12-15T19:05:32.926Z,5.27
2023-12-15T19:08:00.626Z,6.40
2023-12-15T19:10:29.768Z,4.60
2023-12-15T19:12:57.657Z,5.20
2023-12-15T19:15:26.671Z,7.83
2023-12-15T19:17:55.177Z,4.57
2023-12-15T19:20:24.187Z,5.27
2023-12-15T19:22:51.856Z,4.07
2023-12-15T19:25:19.573Z,5.70
2023-12-15T19:27:49.100Z,5.07
2023-12-15T19:30:16.957Z,4.50
2023-12-15T19:32:44.796Z,5.53
2023-12-15T19:35:13.350Z,4.43
2023-12-15T19:37:41.743Z,4.57
2023-12-15T19:40:10.916Z,5.10
2023-12-15T19:42:39.436Z,4.63
2023-12-15T19:45:13.039Z,6.30
2023-12-15T19:47:44.106Z,6.40
2023-12-15T19:50:15.872Z,4.47
2023-12-15T19:52:45.417Z,5.57
2023-12-15T19:55:14.740Z,4.97
2023-12-15T19:57:44.097Z,5.70
2023-12-15T20:00:15.691Z,4.83
2023-12-15T20:02:49.320Z,6.67
2023-12-15T20:05:20.896Z,6.10
2023-12-15T20:07:48.906Z,6.47
2023-12-15T20:10:20.006Z,6.43
2023-12-15T20:12:48.221Z,4.93
2023-12-15T20:15:17.847Z,4.90
2023-12-15T20:17:51.867Z,5.20
2023-12-15T20:20:28.406Z,5.73
2023-12-15T20:23:03.655Z,5.27
2023-12-15T20:25:31.812Z,5.30
2023-12-15T20:28:00.866Z,5.17
2023-12-15T20:30:29.999Z,6.57
2023-12-15T20:32:58.296Z,5.47
2023-12-15T20:35:27.565Z,4.67
2023-12-15T20:37:57.605Z,7.57
2023-12-15T20:40:27.470Z,5.23
2023-12-15T20:42:55.856Z,6.03
2023-12-15T20:45:26.563Z,5.40
2023-12-15T20:47:56.049Z,5.20
2023-12-15T20:50:25.293Z,6.57
2023-12-15T20:52:53.289Z,6.90
2023-12-15T20:55:21.283Z,6.93
2023-12-15T20:57:50.945Z,5.43
2023-12-15T21:00:20.080Z,6.20
2023-12-15T21:02:48.340Z,6.93
2023-12-15T21:05:22.073Z,6.57
2023-12-15T21:07:52.261Z,5.63
2023-12-15T21:10:20.668Z,6.67
2023-12-15T21:12:51.198Z,5.10
2023-12-15T21:15:19.441Z,5.73
2023-12-15T21:17:47.635Z,6.70
2023-12-15T21:20:20.611Z,6.27
2023-12-15T21:22:51.264Z,5.33
2023-12-15T21:25:19.968Z,4.60
2023-12-15T21:27:50.786Z,5.07
2023-12-15T21:30:21.518Z,6.57
2023-12-15T21:32:51.890Z,6.03
2023-12-15T21:35:23.159Z,6.13
2023-12-15T21:37:51.229Z,6.33
2023-12-15T21:40:19.468Z,7.27
2023-12-15T21:42:47.629Z,5.50
2023-12-15T21:45:15.601Z,6.83
2023-12-15T21:47:43.531Z,4.73
2023-12-15T21:50:12.177Z,7.37
2023-12-15T21:52:41.599Z,6.43
2023-12-15T21:55:10.950Z,6.17
2023-12-15T21:57:39.211Z,7.63
2023-12-15T22:00:11.921Z,6.87
2023-12-15T22:02:40.882Z,8.13
2023-12-15T22:05:10.021Z,6.33
2023-12-15T22:07:38.647Z,6.77
2023-12-15T22:10:09.257Z,6.50
2023-12-15T22:12:37.937Z,9.73
2023-12-15T22:15:05.994Z,6.97
2023-12-15T22:17:33.963Z,5.53
2023-12-15T22:20:01.666Z,6.27
2023-12-15T22:22:30.063Z,6.17
2023-12-15T22:24:57.753Z,6.80
2023-12-15T22:27:26.802Z,5.87
2023-12-15T22:29:54.506Z,6.77
2023-12-15T22:32:22.420Z,6.67
2023-12-15T22:34:50.183Z,8.23
2023-12-15T22:37:19.111Z,6.20
2023-12-15T22:39:47.049Z,7.03
2023-12-15T22:42:15.028Z,7.37
2023-12-15T22:44:44.040Z,8.93
2023-12-15T22:47:12.013Z,6.77
2023-12-15T22:49:43.843Z,8.20
2023-12-15T22:52:11.910Z,7.17
2023-12-15T22:54:39.615Z,5.73
2023-12-15T22:57:07.540Z,8.30
2023-12-15T22:59:35.201Z,8.23
2023-12-15T23:02:04.207Z,7.83
2023-12-15T23:04:32.211Z,8.00
2023-12-15T23:07:00.024Z,7.57
2023-12-15T23:09:28.864Z,9.03
2023-12-15T23:11:56.408Z,6.20
2023-12-15T23:14:24.323Z,9.30
2023-12-15T23:16:53.050Z,7.57
2023-12-15T23:19:22.314Z,9.57
2023-12-15T23:21:50.439Z,9.33
2023-12-15T23:24:18.661Z,8.40
2023-12-15T23:26:46.556Z,12.00
2023-12-15T23:29:14.303Z,8.10
2023-12-15T23:31:42.187Z,8.40
2023-12-15T23:34:10.737Z,11.37
2023-12-15T23:36:39.775Z,10.63
2023-12-15T23:39:07.851Z,10.10
2023-12-15T23:41:35.516Z,7.47
2023-12-15T23:44:03.568Z,10.50
2023-12-15T23:46:32.151Z,7.20
2023-12-15T23:49:00.136Z,6.90
2023-12-15T23:51:27.909Z,5.47
2023-12-15T23:53:57.073Z,6.83
2023-12-15T23:56:24.733Z,5.60
2023-12-15T23:58:52.412Z,7.57
